Time;durP1;ratioP1;P1;durP2;ratioP2;P2;SDS_P1;SDS_P2;PMS_P1;PMS_P2;Temp;Humidity;BMP_temperature;BMP_pressure;BME280_temperature;BME280_humidity;BME280_pressure;Samples;Min_cycle;Max_cycle;Signal;HPM_P1;HPM_P2
2021/03/26 00:02:02;;;;;;;52.63;23.52;;;;;;;10.55;90.35;101301.00;4939020;29;20098;-74
2021/03/26 00:04:28;;;;;;;52.40;23.77;;;;;;;10.59;90.27;101299.16;4941092;29;20035;-76
2021/03/26 00:06:54;;;;;;;52.55;23.35;;;;;;;10.33;91.01;101301.44;4939372;29;20594;-75
2021/03/26 00:09:26;;;;;;;47.83;23.55;;;;;;;10.32;91.70;101313.31;4934608;29;20474;-74
2021/03/26 00:11:56;;;;;;;49.17;23.55;;;;;;;10.19;93.14;101309.03;4937677;29;20035;-76
2021/03/26 00:14:21;;;;;;;48.72;24.33;;;;;;;10.11;92.90;101316.09;4938709;29;20043;-75
2021/03/26 00:16:47;;;;;;;52.17;24.00;;;;;;;10.02;93.97;101316.19;4946980;28;20078;-76
2021/03/26 00:19:13;;;;;;;53.90;23.98;;;;;;;9.83;94.20;101313.22;4949646;29;20027;-75
2021/03/26 00:21:39;;;;;;;51.58;23.77;;;;;;;9.89;95.03;101309.19;4933277;29;20027;-75
2021/03/26 00:24:05;;;;;;;47.78;22.05;;;;;;;9.85;94.00;101307.53;4948343;29;20036;-75
2021/03/26 00:26:30;;;;;;;51.33;23.63;;;;;;;9.78;94.41;101307.28;4932940;29;20049;-76
2021/03/26 00:28:56;;;;;;;49.45;23.98;;;;;;;9.78;93.92;101309.97;4952505;29;20035;-76
2021/03/26 00:31:21;;;;;;;52.10;24.55;;;;;;;9.55;95.14;101322.22;4951443;29;20039;-76
2021/03/26 00:33:49;;;;;;;51.35;24.20;;;;;;;9.41;95.28;101316.34;4948093;29;20031;-76
2021/03/26 00:36:14;;;;;;;55.20;24.58;;;;;;;9.29;96.69;101310.94;4952000;29;20028;-77
2021/03/26 00:38:40;;;;;;;51.58;24.08;;;;;;;9.42;96.04;101315.22;4950996;29;20590;-77
2021/03/26 00:41:05;;;;;;;52.45;23.75;;;;;;;9.37;96.29;101315.44;4946333;29;20054;-76
2021/03/26 00:43:31;;;;;;;56.50;25.88;;;;;;;9.43;96.14;101308.72;4948133;29;20118;-75
2021/03/26 00:45:57;;;;;;;52.47;24.13;;;;;;;9.54;95.82;101312.59;4952203;29;20077;-76
2021/03/26 00:48:24;;;;;;;56.92;26.15;;;;;;;9.57;95.67;101323.47;4947854;29;20036;-77
2021/03/26 00:50:54;;;;;;;58.08;26.58;;;;;;;9.67;95.29;101324.94;4950660;29;20381;-76
2021/03/26 00:53:24;;;;;;;50.53;24.15;;;;;;;9.61;95.26;101323.59;4937618;29;20405;-75
2021/03/26 00:55:50;;;;;;;56.08;25.35;;;;;;;9.50;95.63;101314.38;4950379;28;20034;-74
2021/03/26 00:58:16;;;;;;;61.92;26.75;;;;;;;9.44;96.79;101313.00;4915623;29;20092;-76
2021/03/26 01:00:43;;;;;;;60.80;25.30;;;;;;;9.53;96.65;101319.88;4925295;29;20031;-76
2021/03/26 01:03:11;;;;;;;55.85;25.80;;;;;;;9.54;96.84;101320.66;4933232;29;20035;-76
2021/03/26 01:05:41;;;;;;;58.47;25.63;;;;;;;9.63;96.26;101319.47;4952302;29;20094;-76
2021/03/26 01:08:07;;;;;;;57.57;26.90;;;;;;;9.78;96.50;101312.66;4934438;29;20106;-77
2021/03/26 01:10:41;;;;;;;54.45;25.05;;;;;;;9.43;96.57;101312.22;4924897;28;20035;-77
2021/03/26 01:13:08;;;;;;;55.13;24.58;;;;;;;9.33;97.69;101309.91;4947350;29;20027;-76
2021/03/26 01:15:35;;;;;;;53.13;24.65;;;;;;;9.51;97.66;101315.94;4934644;29;20339;-76
2021/03/26 01:18:04;;;;;;;55.95;25.33;;;;;;;9.50;97.23;101309.00;4930076;29;20502;-74
2021/03/26 01:20:34;;;;;;;60.63;25.80;;;;;;;9.66;96.84;101299.97;4952288;29;20554;-75
2021/03/26 01:23:00;;;;;;;58.50;26.03;;;;;;;9.66;96.07;101299.97;4938451;29;20051;-77
2021/03/26 01:25:31;;;;;;;53.72;25.77;;;;;;;9.60;97.11;101305.91;4937761;29;20031;-76
2021/03/26 01:28:17;;;;;;;55.97;23.90;;;;;;;9.70;96.45;101297.38;4935340;29;20042;-76
2021/03/26 01:30:48;;;;;;;61.13;25.23;;;;;;;9.62;96.60;101307.13;4925409;29;20578;-76
2021/03/26 01:33:14;;;;;;;55.97;26.02;;;;;;;9.42;97.59;101305.28;4950237;29;20090;-77
2021/03/26 01:35:40;;;;;;;53.20;25.55;;;;;;;9.45;97.65;101307.28;4932166;29;20023;-77
2021/03/26 01:38:07;;;;;;;50.60;24.08;;;;;;;9.53;98.00;101300.25;4938116;29;20031;-76
2021/03/26 01:40:49;;;;;;;49.38;24.17;;;;;;;9.33;98.03;101293.78;4934223;29;20094;-77
2021/03/26 01:43:22;;;;;;;54.65;25.27;;;;;;;9.49;97.78;101294.75;4936998;29;20505;-77
2021/03/26 01:45:50;;;;;;;54.20;24.85;;;;;;;9.31;98.33;101303.31;4938253;29;20027;-75
2021/03/26 01:48:26;;;;;;;60.15;24.10;;;;;;;9.43;97.86;101298.75;4933290;29;20130;-76
2021/03/26 01:50:54;;;;;;;53.78;24.17;;;;;;;9.33;97.75;101304.53;4952978;29;20031;-76
2021/03/26 01:53:21;;;;;;;55.80;24.65;;;;;;;9.23;98.25;101298.81;4937947;29;20396;-76
2021/03/26 01:55:54;;;;;;;55.45;23.98;;;;;;;9.26;98.31;101288.19;4948044;29;20107;-77
2021/03/26 01:58:23;;;;;;;61.58;25.75;;;;;;;9.27;98.80;101292.41;4949863;29;20087;-76
2021/03/26 02:00:56;;;;;;;55.08;24.73;;;;;;;9.13;99.32;101293.81;4939835;29;20043;-76
2021/03/26 02:03:38;;;;;;;54.70;23.88;;;;;;;9.16;98.98;101296.63;4947464;29;20031;-76
2021/03/26 02:06:10;;;;;;;53.22;23.60;;;;;;;9.16;99.46;101287.78;4947257;28;20067;-77
2021/03/26 02:08:42;;;;;;;58.28;24.52;;;;;;;9.30;98.59;101296.34;4953969;28;20517;-76
2021/03/26 02:11:28;;;;;;;59.75;25.30;;;;;;;9.13;98.39;101285.75;4949016;29;20484;-77
2021/03/26 02:13:55;;;;;;;53.92;24.35;;;;;;;9.12;99.13;101290.34;4954785;29;20066;-77
2021/03/26 02:16:29;;;;;;;59.13;25.05;;;;;;;8.83;100.00;101283.16;4933807;29;20046;-77
2021/03/26 02:19:36;;;;;;;54.03;24.50;;;;;;;9.17;99.44;101292.06;4946458;29;20042;-77
2021/03/26 02:22:02;;;;;;;51.35;24.75;;;;;;;9.06;98.79;101287.06;4926119;29;20027;-76
2021/03/26 02:24:29;;;;;;;58.17;25.45;;;;;;;9.02;99.40;101288.84;4933122;29;20412;-76
2021/03/26 02:26:59;;;;;;;59.25;25.38;;;;;;;8.97;99.30;101286.38;4954568;28;20029;-77
2021/03/26 02:29:28;;;;;;;59.15;24.48;;;;;;;9.11;98.75;101288.78;4918636;29;20126;-77
2021/03/26 02:32:11;;;;;;;50.85;23.10;;;;;;;8.95;99.42;101287.81;4945587;29;20079;-75
2021/03/26 02:34:38;;;;;;;64.13;25.88;;;;;;;8.83;99.27;101287.72;4937008;29;20039;-77
2021/03/26 02:37:10;;;;;;;52.90;24.70;;;;;;;8.66;100.00;101282.47;4950444;28;20868;-77
2021/03/26 02:39:44;;;;;;;58.47;24.60;;;;;;;8.67;100.00;101290.19;4953188;29;20065;-77
2021/03/26 02:42:23;;;;;;;57.53;24.60;;;;;;;8.29;100.00;101288.69;4937186;29;20023;-76
2021/03/26 02:45:38;;;;;;;53.63;24.08;;;;;;;8.35;100.00;101287.41;4954521;29;20736;-77
2021/03/26 02:48:16;;;;;;;56.50;24.90;;;;;;;8.49;100.00;101291.44;4928656;29;20069;-76
2021/03/26 02:51:19;;;;;;;53.00;23.25;;;;;;;8.25;100.00;101283.19;4946762;29;20031;-77
2021/03/26 02:54:09;;;;;;;54.33;24.02;;;;;;;8.04;100.00;101287.66;4891379;29;20066;-77
2021/03/26 02:56:46;;;;;;;58.58;24.83;;;;;;;8.18;100.00;101286.34;4930986;29;20560;-77
2021/03/26 02:59:31;;;;;;;57.53;24.67;;;;;;;8.13;100.00;101285.72;4935890;29;20292;-77
2021/03/26 03:02:00;;;;;;;55.03;23.50;;;;;;;7.87;100.00;101287.72;4950369;29;20122;-77
2021/03/26 03:04:51;;;;;;;52.05;23.63;;;;;;;8.02;100.00;101279.94;4935653;29;20424;-77
2021/03/26 03:07:27;;;;;;;53.28;24.25;;;;;;;8.23;100.00;101277.31;4928854;29;20027;-75
2021/03/26 03:10:18;;;;;;;53.38;23.58;;;;;;;7.90;100.00;101287.06;4952169;29;20412;-77
2021/03/26 03:12:45;;;;;;;52.72;23.73;;;;;;;7.71;100.00;101278.63;4952554;29;20054;-73
2021/03/26 03:15:23;;;;;;;59.80;25.25;;;;;;;7.81;100.00;101284.44;4929852;29;20027;-76
2021/03/26 03:18:12;;;;;;;60.25;25.88;;;;;;;7.87;100.00;101279.69;4951902;28;20756;-76
2021/03/26 03:20:44;;;;;;;53.78;23.38;;;;;;;7.98;100.00;101281.69;4936191;29;20416;-76
2021/03/26 03:23:28;;;;;;;50.13;23.17;;;;;;;7.76;100.00;101281.16;4910812;29;20031;-74
2021/03/26 03:26:33;;;;;;;58.05;25.60;;;;;;;7.61;100.00;101281.63;4951923;28;20126;-76
2021/03/26 03:29:35;;;;;;;58.35;24.23;;;;;;;7.53;100.00;101269.06;4932471;29;20035;-77
2021/03/26 03:32:27;;;;;;;53.92;23.63;;;;;;;7.65;100.00;101287.94;4953575;29;20051;-77
2021/03/26 03:35:31;;;;;;;63.88;24.95;;;;;;;7.58;100.00;101280.41;4920460;29;20050;-76
2021/03/26 03:38:22;;;;;;;62.97;26.02;;;;;;;7.55;100.00;101283.72;4927314;28;20095;-76
2021/03/26 03:40:55;;;;;;;59.30;25.63;;;;;;;7.53;100.00;101282.47;4952960;29;20058;-76
2021/03/26 03:43:47;;;;;;;61.22;26.05;;;;;;;7.76;100.00;101278.47;4932916;29;20038;-77
2021/03/26 03:46:19;;;;;;;60.33;25.52;;;;;;;7.80;100.00;101269.44;4929493;29;20377;-76
2021/03/26 03:49:17;;;;;;;62.58;26.58;;;;;;;7.63;100.00;101266.03;4953563;29;20463;-76
2021/03/26 03:51:55;;;;;;;68.22;27.15;;;;;;;7.88;100.00;101257.13;4925322;29;20044;-75
2021/03/26 03:54:33;;;;;;;67.18;27.08;;;;;;;7.73;100.00;101266.47;4945565;28;20074;-77
2021/03/26 03:57:10;;;;;;;70.80;28.58;;;;;;;7.83;100.00;101251.94;4944445;29;20042;-75
2021/03/26 03:59:52;;;;;;;71.68;28.83;;;;;;;7.91;100.00;101251.91;4950462;29;20039;-77
2021/03/26 04:02:42;;;;;;;70.30;27.33;;;;;;;8.02;100.00;101258.50;4924608;29;20596;-77
2021/03/26 04:05:11;;;;;;;72.55;27.80;;;;;;;7.90;100.00;101261.06;4927218;29;20039;-76
2021/03/26 04:07:52;;;;;;;79.80;29.67;;;;;;;7.83;100.00;101262.66;4951084;29;20059;-75
2021/03/26 04:10:18;;;;;;;81.70;31.92;;;;;;;7.48;100.00;101261.97;4941490;29;20476;-75
2021/03/26 04:12:51;;;;;;;90.28;32.75;;;;;;;7.68;100.00;101263.19;4934734;29;20154;-75
2021/03/26 04:15:29;;;;;;;75.95;31.92;;;;;;;7.66;100.00;101268.88;4952097;29;20046;-75
2021/03/26 04:18:14;;;;;;;77.80;29.13;;;;;;;7.86;100.00;101270.84;4950897;29;20031;-76
2021/03/26 04:21:07;;;;;;;75.50;29.45;;;;;;;7.83;100.00;101270.72;4944145;29;20057;-75
2021/03/26 04:23:56;;;;;;;73.68;29.38;;;;;;;7.87;100.00;101266.28;4931075;29;20054;-76
2021/03/26 04:26:45;;;;;;;69.18;28.20;;;;;;;7.80;100.00;101258.72;4934270;29;20043;-76
2021/03/26 04:29:44;;;;;;;;;;;;;;;7.67;100.00;101259.72;4943656;29;20039;-76
2021/03/26 04:32:12;;;;;;;70.40;27.20;;;;;;;7.75;100.00;101268.84;4949001;28;20056;-75
2021/03/26 04:34:42;;;;;;;69.47;28.70;;;;;;;7.69;100.00;101265.56;4935263;29;20078;-76
2021/03/26 04:37:11;;;;;;;67.47;27.73;;;;;;;7.66;100.00;101254.69;4950082;28;20039;-76
2021/03/26 04:40:01;;;;;;;67.93;28.40;;;;;;;7.71;100.00;101257.19;4933464;29;20071;-75
2021/03/26 04:42:51;;;;;;;68.15;28.13;;;;;;;7.55;100.00;101258.81;4934016;29;20126;-76
2021/03/26 04:45:46;;;;;;;67.32;27.70;;;;;;;7.38;100.00;101258.84;4915685;29;20040;-76
2021/03/26 04:48:49;;;;;;;73.75;27.67;;;;;;;7.19;100.00;101256.50;4943020;29;20038;-75
2021/03/26 04:51:49;;;;;;;75.05;29.40;;;;;;;7.07;100.00;101251.00;4923988;29;20045;-76
2021/03/26 04:54:58;;;;;;;65.13;27.60;;;;;;;7.17;100.00;101250.69;4954804;29;20042;-75
2021/03/26 04:57:47;;;;;;;63.13;26.73;;;;;;;7.44;100.00;101244.16;4940604;28;20078;-76
2021/03/26 05:00:32;;;;;;;70.10;27.10;;;;;;;7.35;100.00;101240.72;4950168;29;20034;-76
2021/03/26 05:03:10;;;;;;;78.18;27.55;;;;;;;7.34;100.00;101247.22;4930566;29;20039;-75
2021/03/26 05:05:45;;;;;;;79.97;31.17;;;;;;;7.32;100.00;101249.41;4935839;29;20055;-76
2021/03/26 05:08:26;;;;;;;80.15;29.83;;;;;;;7.15;100.00;101245.66;4955226;29;20475;-75
2021/03/26 05:11:23;;;;;;;80.47;31.10;;;;;;;7.18;100.00;101254.94;4932555;29;20044;-75
2021/03/26 05:13:53;;;;;;;82.32;30.40;;;;;;;6.99;100.00;101243.75;4947607;29;20106;-75
2021/03/26 05:16:44;;;;;;;81.22;31.67;;;;;;;6.93;100.00;101242.34;4937714;29;20070;-75
2021/03/26 05:19:41;;;;;;;78.15;30.13;;;;;;;7.12;100.00;101238.22;4933444;28;20404;-75
2021/03/26 05:22:39;;;;;;;81.28;30.90;;;;;;;7.23;100.00;101236.03;4959004;28;20027;-76
2021/03/26 05:25:40;;;;;;;73.53;30.88;;;;;;;7.46;100.00;101228.56;4954298;29;20555;-76
2021/03/26 05:28:37;;;;;;;77.90;29.45;;;;;;;7.45;100.00;101230.47;4947900;28;20043;-75
2021/03/26 05:31:34;;;;;;;78.10;30.50;;;;;;;7.45;100.00;101237.72;4952212;28;20039;-76
2021/03/26 05:34:17;;;;;;;77.88;29.88;;;;;;;7.36;100.00;101242.28;4935426;28;20038;-76
2021/03/26 05:37:11;;;;;;;78.40;31.58;;;;;;;7.66;100.00;101238.59;4955383;29;20035;-75
2021/03/26 05:40:09;;;;;;;75.63;30.60;;;;;;;7.75;100.00;101244.72;4935556;28;20075;-76
2021/03/26 05:43:03;;;;;;;82.15;30.50;;;;;;;7.91;100.00;101243.09;4950514;29;20097;-76
2021/03/26 05:46:12;;;;;;;80.03;33.38;;;;;;;8.00;100.00;101235.78;4951429;29;20038;-75
2021/03/26 05:49:26;;;;;;;78.43;29.15;;;;;;;7.86;100.00;101235.19;4914995;29;20063;-75
2021/03/26 05:52:20;;;;;;;84.75;32.72;;;;;;;7.70;100.00;101232.28;4893024;29;20032;-75
2021/03/26 05:55:04;;;;;;;79.82;32.95;;;;;;;7.78;100.00;101225.31;4915932;29;20082;-75
2021/03/26 05:57:35;;;;;;;78.05;31.92;;;;;;;7.70;100.00;101231.50;4945904;28;20037;-76
2021/03/26 06:00:37;;;;;;;79.32;32.90;;;;;;;8.17;100.00;101233.00;4932728;29;20432;-75
2021/03/26 06:03:43;;;;;;;81.15;30.85;;;;;;;8.22;100.00;101224.78;4933112;29;20666;-75
2021/03/26 06:06:45;;;;;;;75.10;30.63;;;;;;;7.87;100.00;101220.69;4949036;28;20062;-75
2021/03/26 06:09:53;;;;;;;77.07;29.00;;;;;;;7.81;100.00;101219.31;4940457;29;20039;-76
2021/03/26 06:12:55;;;;;;;70.68;29.65;;;;;;;8.10;100.00;101228.16;4960016;28;20415;-75
2021/03/26 06:16:02;;;;;;;73.70;30.10;;;;;;;8.08;100.00;101226.91;4957480;28;20054;-75
2021/03/26 06:19:02;;;;;;;69.60;28.45;;;;;;;8.21;100.00;101228.56;4946433;28;20050;-74
2021/03/26 06:22:17;;;;;;;71.05;28.90;;;;;;;8.28;100.00;101220.84;4950904;29;20106;-74
2021/03/26 06:25:35;;;;;;;73.10;29.75;;;;;;;8.16;100.00;101221.50;4937119;29;20416;-75
2021/03/26 06:28:20;;;;;;;79.13;30.42;;;;;;;8.10;100.00;101232.75;4929297;28;20031;-75
2021/03/26 06:31:13;;;;;;;67.93;28.15;;;;;;;8.13;100.00;101234.75;4942910;28;20648;-75
2021/03/26 06:34:14;;;;;;;73.65;28.92;;;;;;;8.28;100.00;101225.41;4934357;29;20043;-74
2021/03/26 06:37:07;;;;;;;75.43;29.83;;;;;;;8.53;100.00;101230.63;4936908;29;20027;-75
2021/03/26 06:39:42;;;;;;;70.95;29.05;;;;;;;8.50;100.00;101225.91;4951512;28;20050;-75
2021/03/26 06:42:29;;;;;;;68.60;29.27;;;;;;;8.39;100.00;101232.75;4953855;29;20439;-75
2021/03/26 06:45:22;;;;;;;69.05;29.75;;;;;;;8.45;100.00;101228.00;4952890;29;20061;-75
2021/03/26 06:48:14;;;;;;;71.40;30.65;;;;;;;8.64;100.00;101234.50;4945888;29;20187;-74
2021/03/26 06:50:54;;;;;;;72.00;30.45;;;;;;;8.59;100.00;101237.38;4953138;28;20037;-75
2021/03/26 06:53:26;;;;;;;76.03;31.00;;;;;;;8.91;100.00;101238.53;4955491;28;20514;-75
2021/03/26 06:56:06;;;;;;;;;;;;;;;9.18;100.00;101242.56;4948923;29;20042;-75
2021/03/26 06:59:09;;;;;;;71.57;28.95;;;;;;;9.49;100.00;101237.50;4947602;28;19918;-76
2021/03/26 07:01:49;;;;;;;67.55;29.08;;;;;;;9.70;100.00;101236.31;4949834;29;20027;-75
2021/03/26 07:04:42;;;;;;;70.25;29.88;;;;;;;9.47;100.00;101237.06;4945225;28;20031;-75
2021/03/26 07:07:14;;;;;;;74.20;30.42;;;;;;;9.47;100.00;101250.50;4948268;28;20526;-75
2021/03/26 07:10:14;;;;;;;66.57;30.65;;;;;;;9.37;100.00;101243.63;4949288;28;20041;-75
2021/03/26 07:13:17;;;;;;;71.20;31.65;;;;;;;9.65;100.00;101243.81;4952599;29;20043;-75
2021/03/26 07:15:52;;;;;;;67.80;29.98;;;;;;;9.52;100.00;101240.34;4953216;29;20113;-75
2021/03/26 07:18:52;;;;;;;67.95;30.40;;;;;;;9.97;100.00;101240.28;4948716;28;20045;-75
2021/03/26 07:21:32;;;;;;;64.93;29.70;;;;;;;9.88;100.00;101253.84;4944972;29;20118;-75
2021/03/26 07:24:19;;;;;;;71.05;30.92;;;;;;;10.03;100.00;101247.00;4953173;29;20054;-75
2021/03/26 07:27:35;;;;;;;69.68;31.63;;;;;;;10.15;100.00;101244.34;4950995;29;20126;-75
2021/03/26 07:30:22;;;;;;;68.70;32.15;;;;;;;10.16;100.00;101247.84;4898813;29;20051;-75
2021/03/26 07:33:24;;;;;;;62.53;30.60;;;;;;;10.17;100.00;101244.00;4947352;29;20045;-75
2021/03/26 07:36:03;;;;;;;66.45;30.92;;;;;;;10.57;99.30;101236.78;4949170;29;20035;-75
2021/03/26 07:38:47;;;;;;;71.45;30.58;;;;;;;10.89;98.11;101250.06;4952481;28;20476;-75
2021/03/26 07:41:54;;;;;;;62.55;29.50;;;;;;;11.13;96.85;101256.50;4934692;28;20090;-76
2021/03/26 07:44:45;;;;;;;62.33;29.98;;;;;;;11.22;96.84;101251.72;4863437;29;20426;-75
2021/03/26 07:47:47;;;;;;;63.13;30.30;;;;;;;11.52;95.89;101248.31;4952197;29;20403;-75
2021/03/26 07:50:29;;;;;;;59.70;28.98;;;;;;;11.92;93.81;101242.81;4952931;28;20126;-75
2021/03/26 07:53:15;;;;;;;58.58;28.98;;;;;;;12.20;91.83;101253.47;4947099;29;20082;-75
2021/03/26 07:55:52;;;;;;;64.53;29.90;;;;;;;12.26;90.18;101257.50;4935169;29;20039;-75
2021/03/26 07:58:36;;;;;;;61.25;29.02;;;;;;;11.96;93.04;101254.47;4947841;28;20039;-75
2021/03/26 08:01:16;;;;;;;60.83;29.63;;;;;;;12.09;91.22;101253.25;4943441;29;20031;-76
2021/03/26 08:04:09;;;;;;;64.03;30.83;;;;;;;12.64;90.20;101247.56;4936274;28;20113;-75
2021/03/26 08:07:07;;;;;;;62.42;29.63;;;;;;;12.68;90.19;101245.72;4940420;28;20050;-75
2021/03/26 08:09:35;;;;;;;59.83;29.63;;;;;;;12.64;88.89;101250.25;4914846;29;20056;-75
2021/03/26 08:12:19;;;;;;;60.60;29.75;;;;;;;12.57;89.88;101246.63;4950974;28;20035;-75
2021/03/26 08:15:32;;;;;;;61.90;30.55;;;;;;;12.78;89.58;101249.78;4943654;28;20050;-75
2021/03/26 08:18:40;;;;;;;61.40;29.73;;;;;;;13.02;89.23;101243.31;4950869;29;20055;-75
2021/03/26 08:21:26;;;;;;;60.20;30.20;;;;;;;13.10;88.45;101243.13;4949113;28;20103;-75
2021/03/26 08:24:01;;;;;;;61.78;30.23;;;;;;;12.67;88.34;101252.25;4936225;29;20492;-75
2021/03/26 08:26:41;;;;;;;58.00;29.70;;;;;;;12.66;90.33;101236.38;4945689;29;20039;-75
2021/03/26 08:29:26;;;;;;;58.38;29.67;;;;;;;13.43;86.76;101240.66;4949469;29;20089;-76
2021/03/26 08:32:10;;;;;;;54.47;29.23;;;;;;;13.33;85.78;101245.88;4951391;29;20043;-75
2021/03/26 08:35:01;;;;;;;57.22;29.25;;;;;;;13.39;87.94;101234.41;4952996;29;20035;-75
2021/03/26 08:38:04;;;;;;;56.63;29.05;;;;;;;14.20;83.71;101241.19;4955113;29;20093;-75
2021/03/26 08:40:54;;;;;;;59.30;30.42;;;;;;;14.02;83.73;101240.13;4942994;28;20077;-75
2021/03/26 08:43:21;;;;;;;56.08;29.05;;;;;;;14.14;82.78;101236.44;4952978;29;20630;-76
2021/03/26 08:45:55;;;;;;;56.80;29.23;;;;;;;14.44;82.87;101240.78;4949357;28;20493;-75
2021/03/26 08:48:35;;;;;;;55.80;27.55;;;;;;;14.37;79.79;101237.97;4948709;28;20054;-75
2021/03/26 08:51:18;;;;;;;57.30;29.08;;;;;;;14.79;78.65;101243.19;4958861;28;20090;-75
2021/03/26 08:54:14;;;;;;;50.92;27.10;;;;;;;15.22;76.94;101236.31;4953416;28;20042;-75
2021/03/26 08:56:52;;;;;;;51.20;25.05;;;;;;;15.41;71.81;101235.38;4942359;29;20122;-75
2021/03/26 08:59:32;;;;;;;51.08;26.13;;;;;;;15.33;75.91;101240.72;4953015;28;20122;-75
2021/03/26 09:02:29;;;;;;;51.27;26.63;;;;;;;15.83;71.56;101231.13;4947416;28;20046;-75
2021/03/26 09:05:07;;;;;;;46.40;23.33;;;;;;;16.36;67.75;101234.22;4951845;28;20074;-75
2021/03/26 09:07:54;;;;;;;45.45;23.80;;;;;;;16.53;65.87;101227.38;4952076;28;20769;-75
2021/03/26 09:10:30;;;;;;;43.97;22.52;;;;;;;16.65;64.14;101227.03;4950894;29;20038;-75
2021/03/26 09:13:13;;;;;;;41.22;21.30;;;;;;;16.61;62.80;101218.06;4947028;29;20063;-74
2021/03/26 09:16:05;;;;;;;37.75;20.58;;;;;;;16.68;62.89;101212.69;4944725;29;20526;-75
2021/03/26 09:18:36;;;;;;;35.33;19.00;;;;;;;16.52;61.17;101221.16;4904162;29;20133;-75
2021/03/26 09:21:20;;;;;;;;;;;;;;;17.03;62.19;101215.53;4952341;29;20035;-76
2021/03/26 09:24:09;;;;;;;41.42;18.60;;;;;;;16.76;61.51;101217.00;4946377;29;19928;-75
2021/03/26 09:26:37;;;;;;;33.25;17.75;;;;;;;17.17;59.91;101213.63;4950970;28;20031;-75
2021/03/26 09:29:19;;;;;;;37.65;19.33;;;;;;;17.32;58.42;101206.28;4945424;29;20032;-75
2021/03/26 09:31:58;;;;;;;32.42;18.02;;;;;;;17.47;58.32;101207.84;4947071;28;20110;-75
2021/03/26 09:34:23;;;;;;;36.30;17.65;;;;;;;17.80;57.18;101214.91;4952417;29;20027;-75
2021/03/26 09:37:07;;;;;;;31.58;18.45;;;;;;;18.00;56.02;101208.66;4945255;29;20115;-75
2021/03/26 09:39:34;;;;;;;32.38;18.05;;;;;;;17.80;56.57;101214.91;4951863;29;21449;-76
2021/03/26 09:42:13;;;;;;;31.08;17.17;;;;;;;18.00;55.86;101205.94;4948109;29;20036;-75
2021/03/26 09:44:56;;;;;;;32.25;17.75;;;;;;;17.98;55.71;101191.16;4946136;29;20055;-77
2021/03/26 09:47:40;;;;;;;28.13;16.17;;;;;;;18.49;54.39;101199.63;4944203;28;20050;-76
2021/03/26 09:50:26;;;;;;;33.10;16.52;;;;;;;19.41;52.17;101189.06;4942286;28;20094;-77
2021/03/26 09:52:53;;;;;;;28.73;16.40;;;;;;;19.36;50.75;101194.13;4924406;28;20042;-77
2021/03/26 09:55:27;;;;;;;29.27;16.70;;;;;;;18.60;52.70;101203.09;4946735;28;20300;-77
2021/03/26 09:58:30;;;;;;;28.23;16.33;;;;;;;18.82;53.47;101201.06;4938027;28;20027;-76
2021/03/26 10:01:08;;;;;;;26.80;16.20;;;;;;;18.69;54.62;101191.75;4941199;28;20063;-76
2021/03/26 10:03:46;;;;;;;32.35;17.65;;;;;;;18.68;52.85;101195.66;4934689;28;20485;-77
2021/03/26 10:06:30;;;;;;;27.38;15.35;;;;;;;18.02;54.49;101205.56;4933363;28;20571;-76
2021/03/26 10:09:22;;;;;;;28.02;16.48;;;;;;;18.60;53.52;101197.63;4937443;28;20038;-76
2021/03/26 10:12:04;;;;;;;27.85;15.07;;;;;;;19.00;51.87;101187.31;4943001;28;20042;-77
2021/03/26 10:14:35;;;;;;;30.38;13.80;;;;;;;18.35;52.13;101196.16;4942722;28;20075;-77
2021/03/26 10:17:10;;;;;;;25.13;13.90;;;;;;;18.88;50.54;101188.56;4942724;28;20043;-77
2021/03/26 10:19:56;;;;;;;25.35;14.10;;;;;;;19.53;50.10;101179.59;4945676;28;20043;-77
2021/03/26 10:22:30;;;;;;;25.85;13.65;;;;;;;19.13;48.57;101188.41;4940102;28;20047;-77
2021/03/26 10:25:06;;;;;;;21.05;12.05;;;;;;;18.38;48.99;101185.22;4942239;28;20097;-77
2021/03/26 10:27:48;;;;;;;20.48;11.27;;;;;;;17.35;49.92;101182.94;4937410;28;20035;-77
2021/03/26 10:30:22;;;;;;;19.17;10.65;;;;;;;18.42;48.79;101188.75;4941904;28;20046;-76
2021/03/26 10:32:49;;;;;;;20.92;11.38;;;;;;;18.20;48.92;101184.47;4943334;28;20031;-75
2021/03/26 10:35:21;;;;;;;18.70;11.23;;;;;;;18.57;48.20;101168.41;4940674;28;20374;-76
2021/03/26 10:38:10;;;;;;;19.75;11.38;;;;;;;19.45;46.19;101167.91;4940820;28;21077;-77
2021/03/26 10:40:58;;;;;;;19.20;10.27;;;;;;;19.16;45.68;101169.28;4941816;28;20471;-76
2021/03/26 10:43:24;;;;;;;19.38;10.60;;;;;;;18.65;46.18;101163.72;4943594;28;20389;-75
2021/03/26 10:45:55;;;;;;;20.13;10.50;;;;;;;19.55;45.74;101161.59;4943965;28;20547;-76
2021/03/26 10:48:41;;;;;;;18.35;10.05;;;;;;;18.99;47.92;101158.47;4945730;28;20032;-76
2021/03/26 10:51:25;;;;;;;19.38;10.98;;;;;;;19.12;46.66;101160.34;4935680;28;20035;-76
2021/03/26 10:53:58;;;;;;;20.65;10.85;;;;;;;19.21;46.67;101157.16;4918205;28;20073;-77
2021/03/26 10:56:24;;;;;;;22.08;10.95;;;;;;;19.40;46.94;101148.44;4943907;28;20087;-75
2021/03/26 10:58:57;;;;;;;19.35;9.95;;;;;;;19.56;46.45;101149.50;4945165;28;20045;-77
2021/03/26 11:01:26;;;;;;;15.95;9.68;;;;;;;20.18;45.44;101151.25;4942220;28;20038;-77
2021/03/26 11:04:29;;;;;;;17.33;9.75;;;;;;;19.97;45.07;101137.78;4940933;28;20119;-77
2021/03/26 11:07:08;;;;;;;16.02;9.65;;;;;;;19.19;45.65;101138.44;4940674;28;20035;-77
2021/03/26 11:09:46;;;;;;;19.42;10.38;;;;;;;19.12;46.24;101137.72;4937929;28;20404;-77
2021/03/26 11:12:21;;;;;;;16.10;9.25;;;;;;;18.26;48.25;101142.00;4922235;29;20035;-76
2021/03/26 11:14:53;;;;;;;14.07;8.18;;;;;;;19.40;46.13;101132.84;4938489;28;20126;-76
2021/03/26 11:17:26;;;;;;;14.82;8.60;;;;;;;19.66;44.95;101129.50;4946884;28;20035;-76
2021/03/26 11:20:21;;;;;;;14.95;8.85;;;;;;;20.14;43.93;101120.41;4945974;29;20038;-75
2021/03/26 11:22:56;;;;;;;18.50;8.65;;;;;;;20.72;43.77;101124.78;4945333;29;20039;-76
2021/03/26 11:25:30;;;;;;;14.77;8.38;;;;;;;20.61;42.85;101119.47;4942544;29;20023;-76
2021/03/26 11:27:57;;;;;;;16.85;8.10;;;;;;;20.64;42.20;101121.38;4937983;29;20031;-76
2021/03/26 11:30:34;;;;;;;12.68;8.07;;;;;;;20.55;42.71;101113.69;4948761;29;20576;-75
2021/03/26 11:33:37;;;;;;;13.73;8.52;;;;;;;19.90;42.78;101116.00;4936644;29;20039;-75
2021/03/26 11:36:22;;;;;;;13.68;8.10;;;;;;;19.79;43.91;101111.41;4944412;28;20036;-77
2021/03/26 11:38:57;;;;;;;14.50;7.90;;;;;;;19.91;43.59;101112.84;4936237;28;20038;-75
2021/03/26 11:41:23;;;;;;;12.73;8.10;;;;;;;20.10;43.02;101109.50;4942340;28;20032;-75
2021/03/26 11:43:53;;;;;;;12.73;7.60;;;;;;;20.00;43.19;101099.47;4941999;28;20473;-75
2021/03/26 11:46:23;;;;;;;13.35;8.20;;;;;;;18.78;45.00;101104.75;4940665;28;20043;-75
2021/03/26 11:48:52;;;;;;;13.30;7.95;;;;;;;19.04;44.54;101097.97;4939179;28;20026;-75
2021/03/26 11:51:29;;;;;;;14.75;8.60;;;;;;;18.62;45.36;101091.59;4944384;28;20062;-75
2021/03/26 11:54:17;;;;;;;12.85;8.00;;;;;;;18.78;46.01;101080.19;4947043;28;20050;-76
2021/03/26 11:56:46;;;;;;;14.02;7.75;;;;;;;18.63;44.71;101095.91;4948063;28;20031;-74
2021/03/26 11:59:17;;;;;;;14.57;8.20;;;;;;;18.66;44.40;101089.63;4950282;29;20039;-76
2021/03/26 12:02:00;;;;;;;;;;;;;;;18.84;45.30;101081.34;4949925;29;20019;-75
2021/03/26 12:04:53;;;;;;;14.05;7.10;;;;;;;19.48;43.83;101076.97;4933362;29;20009;-76
2021/03/26 12:07:28;;;;;;;13.27;7.90;;;;;;;19.42;43.99;101066.84;4940877;28;20058;-76
2021/03/26 12:10:06;;;;;;;15.25;7.53;;;;;;;19.99;43.80;101067.06;4944952;29;20039;-77
2021/03/26 12:12:49;;;;;;;11.95;7.30;;;;;;;20.67;41.82;101057.59;4939491;29;20028;-75
2021/03/26 12:15:23;;;;;;;13.77;7.57;;;;;;;20.38;42.47;101057.19;4947272;29;20122;-76
2021/03/26 12:18:01;;;;;;;12.50;7.20;;;;;;;20.63;43.18;101049.44;4941910;28;21092;-76